Time;durP1;ratioP1;P1;durP2;ratioP2;P2;SDS_P1;SDS_P2;PMS_P1;PMS_P2;Temp;Humidity;BMP_temperature;BMP_pressure;BME280_temperature;BME280_humidity;BME280_pressure;Samples;Min_cycle;Max_cycle;Signal;HPM_P1;HPM_P2
2022/05/31 00:03:21;;;;;;;3.33;1.65;;;18.30;99.90;;;;;;1953077;72;22263;-80
2022/05/31 00:06:32;;;;;;;2.05;1.12;;;18.30;99.90;;;;;;1928994;73;21128;-80
2022/05/31 00:09:41;;;;;;;1.87;1.20;;;18.30;99.90;;;;;;1931504;73;21046;-80
2022/05/31 00:12:33;;;;;;;2.62;1.22;;;18.30;99.90;;;;;;1928731;73;21103;-81
2022/05/31 00:18:22;;;;;;;1.30;1.05;;;18.30;99.90;;;;;;1930049;72;22215;-81
2022/05/31 00:21:41;;;;;;;2.80;1.27;;;18.30;99.90;;;;;;1886222;75;21055;-80
2022/05/31 00:24:51;;;;;;;2.70;1.55;;;18.20;99.90;;;;;;1900308;75;21625;-80
2022/05/31 00:27:43;;;;;;;1.60;1.27;;;18.10;99.90;;;;;;1884863;75;21087;-80
2022/05/31 00:30:54;;;;;;;3.00;1.42;;;18.10;99.90;;;;;;1892619;75;21055;-81
2022/05/31 00:33:45;;;;;;;5.58;1.40;;;18.10;99.90;;;;;;1890707;75;21133;-81
2022/05/31 00:36:39;;;;;;;3.65;1.37;;;18.00;99.90;;;;;;1884778;75;21110;-81
2022/05/31 00:39:31;;;;;;;3.72;1.30;;;18.00;99.90;;;;;;1884816;75;21062;-81
2022/05/31 00:42:24;;;;;;;6.92;1.12;;;18.00;99.90;;;;;;1885976;75;21093;-81
2022/05/31 00:45:16;;;;;;;5.45;1.17;;;17.90;99.90;;;;;;1891633;75;21486;-81
2022/05/31 00:48:12;;;;;;;2.00;1.15;;;17.90;99.90;;;;;;1898813;75;21097;-81
2022/05/31 00:53:45;;;;;;;2.80;1.52;;;17.90;99.90;;;;;;1941259;72;22198;-80
2022/05/31 00:56:56;;;;;;;3.27;1.70;;;17.90;99.90;;;;;;1900047;75;21562;-80
2022/05/31 01:02:49;;;;;;;3.17;1.10;;;17.90;99.90;;;;;;1939943;72;22176;-80
2022/05/31 01:08:45;;;;;;;2.20;0.95;;;17.80;99.90;;;;;;1928236;72;22114;-80
2022/05/31 01:12:16;;;;;;;4.17;1.40;;;17.90;99.90;;;;;;1906904;75;21046;-80
2022/05/31 01:15:45;;;;;;;4.37;1.42;;;17.90;99.90;;;;;;1884715;75;21171;-80
2022/05/31 01:18:47;;;;;;;2.35;0.88;;;18.00;99.90;;;;;;1843733;77;21184;-80
2022/05/31 01:22:16;;;;;;;2.65;1.12;;;18.00;99.90;;;;;;1890747;75;21127;-80
2022/05/31 01:33:20;;;;;;;3.47;1.10;;;17.90;99.90;;;;;;1970382;72;22166;-81
2022/05/31 01:36:33;;;;;;;2.02;1.40;;;17.90;99.90;;;;;;1917726;75;21134;-81
2022/05/31 01:39:46;;;;;;;4.75;1.60;;;17.80;99.90;;;;;;1917738;75;21129;-81
2022/05/31 01:42:42;;;;;;;2.40;1.40;;;17.80;99.90;;;;;;1917832;73;21621;-80
2022/05/31 01:45:55;;;;;;;4.50;1.30;;;17.70;99.90;;;;;;1917743;75;21069;-81
2022/05/31 01:48:47;;;;;;;2.33;1.10;;;17.80;99.90;;;;;;1917540;75;21110;-82
2022/05/31 01:51:40;;;;;;;3.12;1.50;;;17.70;99.90;;;;;;1917554;75;21051;-81
2022/05/31 01:54:34;;;;;;;3.83;1.47;;;17.80;99.90;;;;;;1917509;75;21107;-80
2022/05/31 01:57:27;;;;;;;3.87;1.45;;;17.70;99.90;;;;;;1927842;73;21558;-80
2022/05/31 02:00:20;;;;;;;3.85;1.15;;;17.70;99.90;;;;;;1917476;75;21117;-81
2022/05/31 02:03:15;;;;;;;3.52;1.35;;;17.70;99.90;;;;;;1931884;73;21060;-81
2022/05/31 02:06:09;;;;;;;3.22;1.25;;;17.70;99.90;;;;;;1917718;75;21072;-81
2022/05/31 02:09:03;;;;;;;4.42;1.52;;;17.70;99.90;;;;;;1922331;73;21570;-81
2022/05/31 02:11:56;;;;;;;2.20;1.17;;;17.70;99.90;;;;;;1917439;75;21051;-81
2022/05/31 02:14:49;;;;;;;2.65;1.30;;;17.70;99.90;;;;;;1917383;73;21549;-81
2022/05/31 02:17:41;;;;;;;5.22;1.30;;;17.70;99.90;;;;;;1930691;73;21082;-81
2022/05/31 02:23:17;;;;;;;3.30;1.42;;;17.70;99.90;;;;;;1932534;72;22091;-80
2022/05/31 02:26:27;;;;;;;6.22;1.50;;;17.70;99.90;;;;;;1892364;75;21168;-81
2022/05/31 02:29:39;;;;;;;4.40;1.30;;;17.60;99.90;;;;;;1888805;75;21097;-80
2022/05/31 02:35:11;;;;;;;4.70;1.40;;;17.60;99.90;;;;;;1942265;72;22279;-80
2022/05/31 02:38:22;;;;;;;4.03;1.45;;;17.60;99.90;;;;;;1918677;74;21111;-80
2022/05/31 02:41:32;;;;;;;1.95;1.30;;;17.60;99.90;;;;;;1908980;74;21063;-80
2022/05/31 02:44:24;;;;;;;4.30;1.47;;;17.60;99.90;;;;;;1906547;74;21059;-82
2022/05/31 02:47:37;;;;;;;4.28;1.50;;;17.60;99.90;;;;;;1911983;74;21121;-80
2022/05/31 02:50:28;;;;;;;2.72;1.00;;;17.50;99.90;;;;;;1902184;74;21091;-80
2022/05/31 02:56:01;;;;;;;2.67;1.00;;;17.50;99.90;;;;;;1950435;72;22302;-80
2022/05/31 03:02:07;;;;;;;3.00;1.17;;;17.50;99.90;;;;;;1936498;72;22245;-80
2022/05/31 03:08:05;;;;;;;3.15;1.60;;;17.50;99.90;;;;;;1944286;72;22277;-80
2022/05/31 03:14:19;;;;;;;4.25;1.50;;;17.50;99.90;;;;;;1941302;72;22622;-81
2022/05/31 03:17:33;;;;;;;2.55;1.30;;;17.50;99.90;;;;;;1910914;75;21304;-81
2022/05/31 03:23:25;;;;;;;2.67;1.20;;;17.40;99.90;;;;;;1931216;72;22264;-80
2022/05/31 03:26:38;;;;;;;2.27;1.35;;;17.40;99.90;;;;;;1894947;75;21039;-80
2022/05/31 03:29:52;;;;;;;2.90;1.30;;;17.40;99.90;;;;;;1915312;75;21495;-80
2022/05/31 03:32:45;;;;;;;3.00;1.40;;;17.40;99.90;;;;;;1889827;75;21055;-81
2022/05/31 03:35:56;;;;;;;4.55;1.25;;;17.40;99.90;;;;;;1889578;73;21116;-82
2022/05/31 03:38:49;;;;;;;1.98;1.20;;;17.50;99.90;;;;;;1906155;73;21102;-80
2022/05/31 03:41:40;;;;;;;7.25;1.50;;;17.60;99.90;;;;;;1889334;75;21090;-80
2022/05/31 03:44:32;;;;;;;2.90;1.40;;;17.60;99.90;;;;;;1894329;75;21122;-80
2022/05/31 03:47:42;;;;;;;2.85;1.40;;;17.60;99.90;;;;;;1892700;73;21113;-86
2022/05/31 03:51:01;;;;;;;3.22;1.35;;;17.60;99.90;;;;;;1908076;73;21090;-86
2022/05/31 03:53:52;;;;;;;3.10;1.30;;;17.60;99.90;;;;;;1904445;75;21054;-87
2022/05/31 03:56:45;;;;;;;1.77;1.10;;;17.50;99.90;;;;;;1910174;75;21188;-86
2022/05/31 03:59:39;;;;;;;1.95;1.32;;;17.40;99.90;;;;;;1883909;75;21176;-86
2022/05/31 04:02:31;;;;;;;3.85;1.42;;;17.50;99.90;;;;;;1884786;75;21105;-86
2022/05/31 04:05:23;;;;;;;2.27;1.30;;;17.50;99.90;;;;;;1885365;75;21114;-86
2022/05/31 04:08:15;;;;;;;4.28;1.52;;;17.50;99.90;;;;;;1909786;73;21130;-86
2022/05/31 04:11:06;;;;;;;2.65;1.30;;;17.50;99.90;;;;;;1899138;74;21135;-86
2022/05/31 04:13:58;;;;;;;3.17;1.27;;;17.50;99.90;;;;;;1884652;75;21106;-86
2022/05/31 04:16:53;;;;;;;3.25;1.60;;;17.60;99.90;;;;;;1906128;75;21082;-86
2022/05/31 04:19:45;;;;;;;3.72;1.40;;;17.60;99.90;;;;;;1912482;73;21094;-86
2022/05/31 04:22:36;;;;;;;3.52;1.40;;;17.70;99.90;;;;;;1895562;75;21079;-87
2022/05/31 04:28:16;;;;;;;1.62;1.15;;;17.60;99.90;;;;;;1940765;72;22257;-87
2022/05/31 04:31:39;;;;;;;2.95;1.50;;;17.60;99.90;;;;;;1882570;75;21079;-86
2022/05/31 04:35:08;;;;;;;3.83;1.67;;;17.60;99.90;;;;;;1897937;75;21177;-87
2022/05/31 04:38:00;;;;;;;3.52;1.37;;;17.70;99.90;;;;;;1900148;73;21558;-88
2022/05/31 04:41:21;;;;;;;1.87;1.32;;;17.60;99.90;;;;;;1903693;75;22441;-88
2022/05/31 04:44:17;;;;;;;4.15;1.60;;;17.60;99.90;;;;;;1893951;75;21215;-87
2022/05/31 04:47:09;;;;;;;3.25;1.90;;;17.60;99.90;;;;;;1905361;75;21200;-87
2022/05/31 04:50:03;;;;;;;3.20;2.10;;;17.50;99.90;;;;;;1934172;73;21228;-87
2022/05/31 04:52:56;;;;;;;4.87;2.00;;;17.40;99.90;;;;;;1905768;75;21218;-87
2022/05/31 04:55:48;;;;;;;3.22;1.62;;;17.30;99.90;;;;;;1894969;75;21156;-86
2022/05/31 04:58:40;;;;;;;5.60;1.57;;;17.20;99.90;;;;;;1905316;75;21168;-86
2022/05/31 05:04:18;;;;;;;3.70;1.60;;;17.30;99.90;;;;;;1949054;72;22154;-87
2022/05/31 05:07:31;;;;;;;5.22;1.42;;;17.20;99.90;;;;;;1915614;73;21519;-87
2022/05/31 05:13:25;;;;;;;4.37;2.15;;;17.20;99.90;;;;;;1946500;72;22195;-86
2022/05/31 05:16:37;;;;;;;6.62;1.70;;;17.20;99.90;;;;;;1933218;73;21574;-86
2022/05/31 05:19:48;;;;;;;3.27;1.10;;;17.20;99.90;;;;;;1918900;73;21152;-86
2022/05/31 05:22:41;;;;;;;3.20;1.27;;;17.10;99.90;;;;;;1928349;73;21082;-86
2022/05/31 05:32:09;;;;;;;1.92;1.10;;;17.40;99.90;;;;;;1899057;75;21149;-81
2022/05/31 05:35:21;;;;;;;1.77;1.00;;;17.40;99.90;;;;;;1892625;75;21113;-81
2022/05/31 05:40:54;;;;;;;2.42;1.02;;;17.40;99.90;;;;;;1936643;72;22270;-80
2022/05/31 05:44:06;;;;;;;3.67;1.40;;;17.30;99.90;;;;;;1898093;75;21093;-82
2022/05/31 05:47:16;;;;;;;4.53;1.50;;;17.30;99.90;;;;;;1909833;75;21197;-80
2022/05/31 05:50:09;;;;;;;3.83;1.42;;;17.10;99.90;;;;;;1920131;73;21184;-81
2022/05/31 05:53:37;;;;;;;4.30;1.50;;;16.90;99.90;;;;;;1899025;73;21184;-80
2022/05/31 05:56:43;;;;;;;1.98;1.60;;;16.80;99.90;;;;;;1868519;74;21672;-80
2022/05/31 05:59:52;;;;;;;3.08;1.52;;;16.90;99.90;;;;;;1891235;75;21142;-80
2022/05/31 06:03:05;;;;;;;5.53;1.92;;;16.90;99.90;;;;;;1883490;75;21118;-81
2022/05/31 06:08:44;;;;;;;4.60;2.35;;;16.60;99.90;;;;;;1933983;72;22141;-80
2022/05/31 06:11:57;;;;;;;4.83;2.10;;;16.60;99.90;;;;;;1909002;75;21181;-80
2022/05/31 06:17:53;;;;;;;6.58;2.60;;;16.20;99.90;;;;;;1947761;72;22115;-80
2022/05/31 06:21:06;;;;;;;6.60;4.90;;;16.10;99.90;;;;;;1889153;73;21099;-82
2022/05/31 06:24:18;;;;;;;7.03;2.50;;;15.90;99.90;;;;;;1895176;75;21094;-84
2022/05/31 06:27:10;;;;;;;7.17;2.55;;;15.70;99.90;;;;;;1897594;75;21047;-81
2022/05/31 06:32:59;;;;;;;9.30;2.75;;;15.40;99.90;;;;;;1917382;72;22184;-81
2022/05/31 06:36:10;;;;;;;4.85;2.40;;;15.50;99.90;;;;;;1909572;75;21166;-83
2022/05/31 06:39:24;;;;;;;8.63;2.60;;;15.50;99.90;;;;;;1917048;73;21087;-85
2022/05/31 06:42:17;;;;;;;3.85;1.42;;;15.40;99.90;;;;;;1905761;73;21106;-82
2022/05/31 06:48:23;;;;;;;3.02;1.60;;;15.60;99.90;;;;;;1942756;72;22132;-81
2022/05/31 06:58:11;;;;;;;6.25;2.27;;;15.80;99.90;;;;;;1950943;72;22613;-81
2022/05/31 07:01:30;;;;;;;6.75;2.87;;;15.90;99.90;;;;;;1919105;73;21091;-83
2022/05/31 07:04:36;;;;;;;8.70;3.33;;;16.00;99.90;;;;;;1916628;74;21090;-82
2022/05/31 07:07:30;;;;;;;7.47;2.83;;;16.10;99.90;;;;;;1927677;73;21150;-81
2022/05/31 07:13:22;;;;;;;6.20;1.92;;;16.20;99.90;;;;;;1930447;72;22724;-81
2022/05/31 07:16:36;;;;;;;6.80;2.33;;;16.30;99.90;;;;;;1901602;75;21066;-83
2022/05/31 07:22:45;;;;;;;3.62;2.12;;;16.30;99.90;;;;;;1927298;72;22225;-82
2022/05/31 07:28:44;;;;;;;5.17;3.00;;;16.50;99.90;;;;;;1948183;72;22553;-81
2022/05/31 07:31:55;;;;;;;4.30;2.98;;;16.40;99.90;;;;;;1940670;73;21136;-83
2022/05/31 07:35:09;;;;;;;5.15;2.50;;;16.50;99.90;;;;;;1917785;73;21410;-82
2022/05/31 07:38:01;;;;;;;5.50;2.72;;;16.60;99.90;;;;;;1928582;73;21143;-82
2022/05/31 07:43:55;;;;;;;5.33;2.20;;;16.40;99.90;;;;;;1933738;72;22312;-81
2022/05/31 07:47:06;;;;;;;3.15;1.77;;;16.50;99.90;;;;;;1893533;75;21059;-83
2022/05/31 07:50:16;;;;;;;2.70;1.65;;;16.50;99.90;;;;;;1899456;75;21083;-82
2022/05/31 07:53:15;;;;;;;2.33;1.40;;;16.60;99.90;;;;;;1889541;75;21095;-82
2022/05/31 07:56:31;;;;;;;3.58;1.87;;;16.80;99.90;;;;;;1884329;74;21156;-81
2022/05/31 08:02:17;;;;;;;5.08;2.65;;;17.10;99.90;;;;;;1943227;72;22214;-81
2022/05/31 08:08:09;;;;;;;4.08;2.47;;;17.30;99.90;;;;;;1956656;72;22116;-81
2022/05/31 08:11:23;;;;;;;4.92;2.67;;;17.30;99.90;;;;;;1902541;75;21113;-82
2022/05/31 08:14:34;;;;;;;5.47;2.75;;;17.40;99.90;;;;;;1888394;75;21090;-81
2022/05/31 08:22:51;;;;;;;6.80;2.00;;;17.70;99.90;;;;;;1944195;72;22684;-81
2022/05/31 08:26:01;;;;;;;3.17;1.80;;;17.70;99.90;;;;;;1914833;75;21506;-81
2022/05/31 08:29:11;;;;;;;2.75;2.35;;;17.80;99.90;;;;;;1917595;75;21652;-81
2022/05/31 08:32:02;;;;;;;4.00;2.30;;;18.00;99.90;;;;;;1927797;73;21447;-81
2022/05/31 08:37:52;;;;;;;7.08;2.90;;;18.30;99.90;;;;;;1933424;72;22277;-80
2022/05/31 08:41:13;;;;;;;4.72;2.10;;;18.50;99.90;;;;;;1903972;75;21531;-81
2022/05/31 08:44:37;;;;;;;3.60;1.90;;;18.70;99.90;;;;;;1907371;75;21139;-81
2022/05/31 08:47:36;;;;;;;6.30;2.47;;;19.00;99.90;;;;;;1904292;75;21157;-81
2022/05/31 08:57:32;;;;;;;6.05;2.30;;;19.60;99.90;;;;;;1904546;75;21184;-82
2022/05/31 09:00:26;;;;;;;5.08;2.40;;;19.80;99.90;;;;;;1906200;75;21495;-82
2022/05/31 09:03:21;;;;;;;6.45;2.40;;;20.00;99.90;;;;;;1913776;75;21168;-82
2022/05/31 09:08:58;;;;;;;4.22;1.95;;;20.00;99.90;;;;;;1944752;72;22133;-81
2022/05/31 09:12:13;;;;;;;3.80;2.25;;;20.10;99.90;;;;;;1937100;73;21074;-81
2022/05/31 09:15:29;;;;;;;4.45;2.87;;;20.30;99.90;;;;;;1917492;74;21163;-81
2022/05/31 09:18:23;;;;;;;4.03;1.95;;;20.60;99.90;;;;;;1926543;73;21203;-81
2022/05/31 09:24:16;;;;;;;5.60;1.92;;;20.70;99.90;;;;;;1939241;72;22236;-80
2022/05/31 09:27:30;;;;;;;3.95;2.10;;;20.60;99.90;;;;;;1892147;75;21078;-80
2022/05/31 09:33:23;;;;;;;2.02;1.30;;;20.50;99.90;;;;;;1938131;72;22111;-81
2022/05/31 09:36:37;;;;;;;4.62;1.70;;;20.60;99.90;;;;;;1904885;75;21148;-82
2022/05/31 09:42:34;;;;;;;1.90;1.00;;;20.90;99.90;;;;;;1963330;72;22188;-81
2022/05/31 09:45:49;;;;;;;2.72;1.40;;;20.90;99.90;;;;;;1923974;73;21515;-81
2022/05/31 09:48:59;;;;;;;1.98;1.72;;;21.00;99.90;;;;;;1917577;75;21051;-81
2022/05/31 09:51:51;;;;;;;2.22;1.55;;;21.00;99.90;;;;;;1917516;75;21097;-81
2022/05/31 09:58:42;;;;;;;2.80;1.60;;;21.20;99.90;;;;;;1922336;73;21063;-81
2022/05/31 10:01:43;;;;;;;4.50;1.80;;;21.50;99.90;;;;;;1917381;75;21615;-81
2022/05/31 10:04:41;;;;;;;3.05;1.62;;;21.60;99.90;;;;;;1939732;73;21652;-81
2022/05/31 10:07:36;;;;;;;3.30;1.60;;;21.70;99.90;;;;;;1925618;73;21111;-81
2022/05/31 10:13:09;;;;;;;2.17;1.57;;;21.90;99.90;;;;;;1917770;72;22315;-81
2022/05/31 10:16:21;;;;;;;3.90;2.17;;;22.00;99.90;;;;;;1895296;74;21055;-81
2022/05/31 10:19:32;;;;;;;3.98;1.67;;;21.70;99.90;;;;;;1826707;77;21152;-81
2022/05/31 10:22:24;;;;;;;1.87;1.15;;;21.80;99.90;;;;;;1853515;76;21117;-81
2022/05/31 10:28:35;;;;;;;3.50;1.30;;;21.90;99.90;;;;;;1941922;72;22158;-81
2022/05/31 10:34:36;;;;;;;3.95;2.02;;;22.20;99.90;;;;;;1936998;72;22137;-81
2022/05/31 10:38:00;;;;;;;2.10;1.73;;;22.20;99.90;;;;;;1910339;75;21647;-82
2022/05/31 10:41:13;;;;;;;2.42;1.50;;;22.20;99.90;;;;;;1906911;75;21405;-82
2022/05/31 10:44:08;;;;;;;2.67;1.60;;;22.00;99.90;;;;;;1906575;75;21048;-82
2022/05/31 10:47:20;;;;;;;6.15;1.92;;;22.00;99.90;;;;;;1906409;75;21096;-82
2022/05/31 10:50:14;;;;;;;2.37;1.45;;;22.40;99.90;;;;;;1884555;76;21073;-82
2022/05/31 10:53:15;;;;;;;3.40;1.67;;;22.30;99.90;;;;;;1897516;75;21166;-82
2022/05/31 10:56:12;;;;;;;4.72;2.50;;;22.30;99.90;;;;;;1884788;75;21094;-82
2022/05/31 10:59:06;;;;;;;5.20;2.33;;;22.50;99.90;;;;;;1884480;75;21128;-82
2022/05/31 11:02:10;;;;;;;3.30;2.85;;;22.30;99.90;;;;;;1901189;75;21116;-82
2022/05/31 11:05:07;;;;;;;4.55;2.45;;;22.20;99.90;;;;;;1906374;75;21500;-82
2022/05/31 11:11:29;;;;;;;3.75;2.70;;;22.20;99.90;;;;;;1887177;75;21055;-82
2022/05/31 11:14:28;;;;;;;3.50;2.65;;;22.30;99.90;;;;;;1917354;75;21047;-82
2022/05/31 11:17:32;;;;;;;4.30;2.50;;;22.40;99.90;;;;;;1897723;75;21477;-82
2022/05/31 11:20:27;;;;;;;4.05;2.52;;;22.20;99.90;;;;;;1895797;75;21051;-81
2022/05/31 11:23:27;;;;;;;4.92;2.77;;;22.30;99.90;;;;;;1894786;75;21563;-82
2022/05/31 11:26:31;;;;;;;3.92;2.45;;;22.30;99.90;;;;;;1895421;75;21151;-82
2022/05/31 11:29:33;;;;;;;4.65;2.33;;;22.40;99.90;;;;;;1895178;75;21075;-82
2022/05/31 11:32:30;;;;;;;3.92;2.15;;;22.60;99.90;;;;;;1897176;75;21131;-82
2022/05/31 11:35:27;;;;;;;3.30;2.27;;;22.50;99.90;;;;;;1901364;75;21188;-82
2022/05/31 11:38:22;;;;;;;4.33;1.83;;;22.50;99.90;;;;;;1897576;75;21569;-82
2022/05/31 11:41:17;;;;;;;3.83;2.08;;;22.20;99.90;;;;;;1895391;75;21117;-82
2022/05/31 11:47:32;;;;;;;7.53;1.90;;;22.20;99.90;;;;;;1954530;72;22249;-81
2022/05/31 11:50:47;;;;;;;4.72;1.80;;;22.10;99.90;;;;;;1906972;75;21621;-81
2022/05/31 11:54:28;;;;;;;2.62;1.77;;;21.70;99.90;;;;;;1884418;75;21123;-81
2022/05/31 11:57:25;;;;;;;2.22;1.60;;;21.50;99.90;;;;;;1887242;75;21113;-81
2022/05/31 12:00:39;;;;;;;2.92;1.62;;;21.20;99.90;;;;;;1895422;75;21543;-82
2022/05/31 12:03:38;;;;;;;2.85;1.60;;;20.80;99.90;;;;;;1891013;75;21106;-81
2022/05/31 12:06:36;;;;;;;3.10;1.50;;;20.50;99.90;;;;;;1895685;75;21536;-81
2022/05/31 12:09:30;;;;;;;3.55;1.55;;;20.30;99.90;;;;;;1901110;75;21048;-81
2022/05/31 12:12:30;;;;;;;4.60;1.57;;;20.20;99.90;;;;;;1904999;75;21115;-81
2022/05/31 12:18:03;;;;;;;2.83;1.20;;;19.60;99.90;;;;;;1957911;72;22116;-81
2022/05/31 12:21:17;;;;;;;3.17;1.15;;;19.40;99.90;;;;;;1906374;75;21135;-82
2022/05/31 12:24:31;;;;;;;3.92;1.47;;;18.90;99.90;;;;;;1906382;75;21111;-82
2022/05/31 12:27:25;;;;;;;1.87;1.10;;;18.10;99.90;;;;;;1900427;75;21140;-82
2022/05/31 12:30:40;;;;;;;4.22;1.20;;;17.60;99.90;;;;;;1901799;75;21047;-82
2022/05/31 12:33:42;;;;;;;2.85;1.00;;;17.60;99.90;;;;;;1897374;75;21105;-81
2022/05/31 12:36:44;;;;;;;1.32;1.10;;;17.70;99.90;;;;;;1895086;75;21103;-80
2022/05/31 12:39:37;;;;;;;3.60;1.50;;;17.80;99.90;;;;;;1895622;75;21043;-80
2022/05/31 12:42:40;;;;;;;7.00;1.50;;;18.00;99.90;;;;;;1917332;75;21149;-81
2022/05/31 12:45:41;;;;;;;2.95;1.80;;;17.80;99.90;;;;;;1895992;75;21067;-81
2022/05/31 12:48:33;;;;;;;2.62;1.75;;;17.70;99.90;;;;;;1902929;75;21182;-80
2022/05/31 12:51:24;;;;;;;3.98;1.72;;;17.60;99.90;;;;;;1897506;75;21059;-80
2022/05/31 12:54:19;;;;;;;4.65;1.60;;;17.50;99.90;;;;;;1887227;75;21118;-80
2022/05/31 12:57:25;;;;;;;4.20;2.00;;;17.60;99.90;;;;;;1884339;75;21195;-80
2022/05/31 13:00:27;;;;;;;4.22;2.10;;;17.80;99.90;;;;;;1886532;75;21214;-80
2022/05/31 13:03:56;;;;;;;3.10;2.02;;;18.00;99.90;;;;;;1896755;75;21063;-80
2022/05/31 13:07:08;;;;;;;4.78;2.10;;;18.20;99.90;;;;;;1908696;75;21528;-80
2022/05/31 13:10:07;;;;;;;2.60;1.75;;;18.30;99.90;;;;;;1895472;75;21110;-80
2022/05/31 13:19:38;;;;;;;2.45;1.70;;;18.40;99.90;;;;;;1903870;75;21109;-81
2022/05/31 13:22:37;;;;;;;3.52;2.22;;;18.40;99.90;;;;;;1902563;75;21173;-81
2022/05/31 13:25:30;;;;;;;3.45;2.25;;;18.40;99.90;;;;;;1898006;75;21121;-81
2022/05/31 13:28:30;;;;;;;2.67;1.55;;;18.40;99.90;;;;;;1885675;75;21117;-82
2022/05/31 13:31:23;;;;;;;3.22;2.15;;;18.50;99.90;;;;;;1883928;75;21186;-82
2022/05/31 13:36:59;;;;;;;3.62;2.00;;;18.70;99.90;;;;;;1955159;72;22094;-82
2022/05/31 13:40:12;;;;;;;4.03;2.00;;;18.90;99.90;;;;;;1899571;75;21117;-82
2022/05/31 13:43:25;;;;;;;5.22;1.98;;;19.20;99.90;;;;;;1898715;75;21115;-83
2022/05/31 13:46:21;;;;;;;2.47;1.98;;;19.40;99.90;;;;;;1895570;75;21502;-83
2022/05/31 13:49:37;;;;;;;4.78;2.00;;;19.60;99.90;;;;;;1895729;75;21628;-83
2022/05/31 13:52:31;;;;;;;3.67;2.95;;;19.60;99.90;;;;;;1895309;75;21054;-84
2022/05/31 13:55:25;;;;;;;2.30;1.80;;;19.50;99.90;;;;;;1915977;75;21665;-84
2022/05/31 13:58:17;;;;;;;4.30;1.98;;;19.40;99.90;;;;;;1903642;75;21116;-84
2022/05/31 14:01:21;;;;;;;2.55;1.85;;;19.40;99.90;;;;;;1904118;75;21132;-84
2022/05/31 14:04:18;;;;;;;3.85;1.72;;;19.40;99.90;;;;;;1895467;75;21307;-84
2022/05/31 14:07:11;;;;;;;2.85;1.65;;;19.40;99.90;;;;;;1895246;75;21113;-84
2022/05/31 14:10:04;;;;;;;1.65;1.55;;;19.60;99.90;;;;;;1895255;75;21169;-84
2022/05/31 14:12:59;;;;;;;3.72;1.50;;;19.90;99.90;;;;;;1898212;75;21062;-84
2022/05/31 14:15:51;;;;;;;4.42;1.67;;;20.50;99.90;;;;;;1884681;76;21169;-83
2022/05/31 14:18:46;;;;;;;2.52;1.62;;;20.80;99.90;;;;;;1906679;75;21539;-83
2022/05/31 14:21:41;;;;;;;1.72;1.47;;;21.10;99.90;;;;;;1906562;75;21216;-83
2022/05/31 14:24:35;;;;;;;3.30;1.72;;;21.50;99.90;;;;;;1906311;75;21179;-83
2022/05/31 14:27:28;;;;;;;2.30;1.72;;;21.50;99.90;;;;;;1903137;75;21094;-83
2022/05/31 14:30:34;;;;;;;5.45;1.45;;;21.10;99.90;;;;;;1898439;75;21103;-82
2022/05/31 14:33:27;;;;;;;3.50;1.40;;;21.60;99.90;;;;;;1896290;75;21153;-83
2022/05/31 14:39:18;;;;;;;3.52;1.80;;;21.80;99.90;;;;;;1933017;72;22190;-82
2022/05/31 14:45:12;;;;;;;3.22;1.55;;;22.00;99.90;;;;;;1958303;72;22158;-81
2022/05/31 14:48:48;;;;;;;4.30;1.60;;;22.30;99.90;;;;;;1900759;75;21129;-82
2022/05/31 14:51:57;;;;;;;1.90;1.50;;;22.60;99.90;;;;;;1905298;75;21149;-82
2022/05/31 14:54:51;;;;;;;3.05;1.67;;;22.30;99.90;;;;;;1901863;75;21138;-82
2022/05/31 15:01:21;;;;;;;3.00;1.65;;;22.50;99.90;;;;;;1899141;75;21090;-82
2022/05/31 15:04:17;;;;;;;3.02;1.40;;;22.10;99.90;;;;;;1906739;75;21520;-82
2022/05/31 15:10:13;;;;;;;5.60;1.80;;;21.40;99.90;;;;;;1952492;72;22213;-83
2022/05/31 15:20:01;;;;;;;4.33;1.70;;;20.60;99.90;;;;;;1895240;75;21168;-82
2022/05/31 15:23:15;;;;;;;2.20;1.35;;;20.50;99.90;;;;;;1895262;75;21526;-82
2022/05/31 15:26:10;;;;;;;2.52;1.60;;;20.70;99.90;;;;;;1895113;75;21064;-82
2022/05/31 15:29:01;;;;;;;3.60;2.17;;;21.00;99.90;;;;;;1899098;75;21066;-82
2022/05/31 15:31:55;;;;;;;3.75;2.20;;;21.20;99.90;;;;;;1897459;75;21110;-82
2022/05/31 15:34:48;;;;;;;3.50;1.65;;;21.20;99.90;;;;;;1886843;75;21063;-82
2022/05/31 15:37:40;;;;;;;7.83;2.30;;;21.00;99.90;;;;;;1884288;75;21060;-82
2022/05/31 15:40:32;;;;;;;2.17;1.70;;;20.70;99.90;;;;;;1904225;75;21121;-82
2022/05/31 15:46:36;;;;;;;2.40;1.62;;;20.50;99.90;;;;;;1897637;75;21150;-82
2022/05/31 15:49:28;;;;;;;3.67;1.12;;;20.40;99.90;;;;;;1908819;75;21120;-82
2022/05/31 15:52:22;;;;;;;1.87;1.00;;;20.20;99.90;;;;;;1909768;75;21051;-82
2022/05/31 15:55:17;;;;;;;2.52;1.42;;;20.00;99.90;;;;;;1896588;75;21667;-82
2022/05/31 15:58:12;;;;;;;1.95;1.30;;;19.90;99.90;;;;;;1900538;75;21547;-82
2022/05/31 16:01:03;;;;;;;3.00;1.42;;;19.90;99.90;;;;;;1895786;75;21054;-82
2022/05/31 16:03:58;;;;;;;1.75;1.40;;;19.90;99.90;;;;;;1909670;75;21087;-83
2022/05/31 16:06:51;;;;;;;2.10;1.47;;;19.90;99.90;;;;;;1905381;75;21223;-82
2022/05/31 16:10:01;;;;;;;5.25;2.45;;;19.80;99.90;;;;;;1892501;75;21187;-82
2022/05/31 16:12:54;;;;;;;2.25;1.50;;;19.80;99.90;;;;;;1890131;75;21106;-82
2022/05/31 16:18:25;;;;;;;3.77;1.62;;;19.70;99.90;;;;;;1939278;72;22109;-82
2022/05/31 16:21:35;;;;;;;2.92;1.70;;;19.70;99.90;;;;;;1895191;75;21388;-83
2022/05/31 16:24:48;;;;;;;3.17;1.95;;;19.70;99.90;;;;;;1890108;75;21047;-87
2022/05/31 16:27:40;;;;;;;2.87;1.72;;;19.70;99.90;;;;;;1875688;75;21106;-84
2022/05/31 16:30:50;;;;;;;3.02;2.10;;;19.70;99.90;;;;;;1873421;76;21548;-83
2022/05/31 16:33:44;;;;;;;3.77;1.90;;;19.70;99.90;;;;;;1873385;76;21059;-96
2022/05/31 16:36:49;;;;;;;5.92;2.60;;;19.70;99.90;;;;;;1874034;76;21164;-94
2022/05/31 16:42:50;;;;;;;4.03;2.33;;;19.50;99.90;;;;;;1873277;76;21136;-88
2022/05/31 16:45:42;;;;;;;4.58;2.20;;;19.50;99.90;;;;;;1874978;75;21148;-92
2022/05/31 16:48:34;;;;;;;4.03;2.45;;;19.50;99.90;;;;;;1873418;76;21122;-92
2022/05/31 16:51:30;;;;;;;3.55;2.85;;;19.40;99.90;;;;;;1873380;76;21105;-93
2022/05/31 16:54:23;;;;;;;4.87;2.83;;;19.40;99.90;;;;;;1872704;76;21110;-92
2022/05/31 16:57:17;;;;;;;3.67;2.72;;;19.30;99.90;;;;;;1873429;76;21067;-93
2022/05/31 17:00:11;;;;;;;4.70;3.10;;;19.30;99.90;;;;;;1873002;76;21106;-92
2022/05/31 17:03:02;;;;;;;4.28;3.33;;;19.30;99.90;;;;;;1875101;75;21058;-92
2022/05/31 17:05:54;;;;;;;4.12;3.00;;;19.20;99.90;;;;;;1909988;73;21557;-91
2022/05/31 17:15:21;;;;;;;7.12;4.53;;;19.40;99.90;;;;;;1843961;74;21182;-83
2022/05/31 17:18:13;;;;;;;6.90;3.30;;;19.50;99.90;;;;;;1901538;74;21188;-83
2022/05/31 17:21:06;;;;;;;4.62;3.27;;;19.60;99.90;;;;;;1896151;75;21197;-91
2022/05/31 17:23:58;;;;;;;8.00;5.47;;;19.90;99.90;;;;;;1875909;76;21051;-90
2022/05/31 17:26:52;;;;;;;7.25;5.08;;;21.30;99.90;;;;;;1889315;75;21059;-91
2022/05/31 17:29:44;;;;;;;5.50;4.03;;;21.60;99.90;;;;;;1903188;75;21056;-90
2022/05/31 17:32:36;;;;;;;8.33;5.72;;;21.20;99.90;;;;;;1893615;75;21240;-90
2022/05/31 17:35:28;;;;;;;5.35;3.20;;;20.70;99.90;;;;;;1891589;73;21190;-90
2022/05/31 17:38:23;;;;;;;5.37;3.45;;;20.40;99.90;;;;;;1885385;75;21724;-89
2022/05/31 17:41:23;;;;;;;6.40;3.12;;;20.20;99.90;;;;;;1885508;75;21060;-90
2022/05/31 17:44:15;;;;;;;5.33;3.67;;;20.00;99.90;;;;;;1881290;75;21155;-89
2022/05/31 17:47:08;;;;;;;4.67;2.98;;;19.90;99.90;;;;;;1868928;76;21066;-89
2022/05/31 17:49:59;;;;;;;5.65;3.50;;;19.70;99.90;;;;;;1891071;75;21103;-89
2022/05/31 17:52:52;;;;;;;6.12;2.95;;;19.60;99.90;;;;;;1889385;75;21148;-89
2022/05/31 17:55:44;;;;;;;5.25;3.80;;;19.60;99.90;;;;;;1883801;75;21059;-88
2022/05/31 17:58:38;;;;;;;3.85;3.00;;;19.70;99.90;;;;;;1886403;75;21113;-88
2022/05/31 18:01:29;;;;;;;5.50;3.83;;;19.60;99.90;;;;;;1899566;75;21052;-88
2022/05/31 18:04:21;;;;;;;7.90;4.97;;;19.40;99.90;;;;;;1912957;73;21044;-87
2022/05/31 18:07:14;;;;;;;6.15;4.17;;;19.60;99.90;;;;;;1912908;74;21047;-88
2022/05/31 18:10:08;;;;;;;7.92;4.33;;;19.80;99.90;;;;;;1880159;75;21162;-88
2022/05/31 18:13:00;;;;;;;11.57;6.05;;;20.30;99.90;;;;;;1907921;75;21103;-88
2022/05/31 18:15:52;;;;;;;7.62;4.30;;;20.30;99.90;;;;;;1873787;75;21055;-88
2022/05/31 18:18:43;;;;;;;5.35;3.70;;;20.20;99.90;;;;;;1864699;76;21537;-88
2022/05/31 18:21:36;;;;;;;4.85;2.52;;;20.00;99.90;;;;;;1880795;75;21110;-87
2022/05/31 18:24:32;;;;;;;5.28;2.75;;;20.00;99.90;;;;;;1889301;75;21124;-88
2022/05/31 18:27:26;;;;;;;4.30;2.90;;;20.10;99.90;;;;;;1871775;75;21121;-87
2022/05/31 18:30:20;;;;;;;3.52;2.80;;;19.90;99.90;;;;;;1879280;75;21059;-85
2022/05/31 18:33:15;;;;;;;5.40;2.55;;;19.70;99.90;;;;;;1880096;75;21117;-86
2022/05/31 18:36:16;;;;;;;4.72;3.10;;;19.50;99.90;;;;;;1908179;73;21204;-85
2022/05/31 18:39:10;;;;;;;7.53;3.00;;;19.40;99.90;;;;;;1901432;74;21176;-87
2022/05/31 18:42:02;;;;;;;4.30;3.17;;;19.30;99.90;;;;;;1895996;75;21203;-85
2022/05/31 18:44:59;;;;;;;3.72;2.77;;;19.20;99.90;;;;;;1891254;75;21107;-85
2022/05/31 18:47:53;;;;;;;3.12;2.47;;;19.10;99.90;;;;;;1888272;75;21103;-85